Time;durP1;ratioP1;P1;durP2;ratioP2;P2;SDS_P1;SDS_P2;PMS_P1;PMS_P2;Temp;Humidity;BMP_temperature;BMP_pressure;BME280_temperature;BME280_humidity;BME280_pressure;Samples;Min_cycle;Max_cycle;Signal;HPM_P1;HPM_P2
2022/06/24 00:01:56;;;;;;;30.73;9.93;;;;;;;;;;3348978;42;20572;-55
2022/06/24 00:04:23;;;;;;;23.65;8.80;;;;;;;;;;3343636;42;20089;-56
2022/06/24 00:06:49;;;;;;;24.97;8.70;;;;;;;;;;3334862;42;20104;-55
2022/06/24 00:09:15;;;;;;;24.83;8.30;;;;;;;;;;3348176;42;20085;-56
2022/06/24 00:11:41;;;;;;;23.08;8.15;;;;;;;;;;3349073;42;20085;-51
2022/06/24 00:14:17;;;;;;;18.52;6.45;;;;;;;;;;3342288;42;20092;-56
2022/06/24 00:16:54;;;;;;;13.05;5.63;;;;;;;;;;3346307;42;20101;-56
2022/06/24 00:19:20;;;;;;;19.60;6.60;;;;;;;;;;3348005;42;20088;-54
2022/06/24 00:22:05;;;;;;;15.85;6.28;;;;;;;;;;3344946;42;20092;-55
2022/06/24 00:24:32;;;;;;;16.55;7.32;;;;;;;;;;3346135;42;20085;-55
2022/06/24 00:26:58;;;;;;;20.27;6.60;;;;;;;;;;3343920;42;20076;-55
2022/06/24 00:29:28;;;;;;;21.08;6.97;;;;;;;;;;3343099;42;20520;-55
2022/06/24 00:32:08;;;;;;;18.53;6.37;;;;;;;;;;3344730;42;20140;-54
2022/06/24 00:34:34;;;;;;;17.00;6.20;;;;;;;;;;3344183;42;20093;-55
2022/06/24 00:37:23;;;;;;;18.08;6.63;;;;;;;;;;3345026;42;20136;-57
2022/06/24 00:39:49;;;;;;;18.45;6.63;;;;;;;;;;3346357;42;20088;-54
2022/06/24 00:42:16;;;;;;;24.77;7.72;;;;;;;;;;3340758;42;20089;-54
2022/06/24 00:44:56;;;;;;;20.77;7.60;;;;;;;;;;3345910;42;20103;-56
2022/06/24 00:47:22;;;;;;;23.95;8.30;;;;;;;;;;3338477;42;20100;-55
2022/06/24 00:49:48;;;;;;;26.55;8.98;;;;;;;;;;3342948;42;20128;-54
2022/06/24 00:52:15;;;;;;;26.30;7.70;;;;;;;;;;3345832;42;20155;-56
2022/06/24 00:54:43;;;;;;;32.05;9.68;;;;;;;;;;3340071;42;20089;-57
2022/06/24 00:57:09;;;;;;;33.07;10.83;;;;;;;;;;3348087;42;20191;-56
2022/06/24 00:59:35;;;;;;;24.58;7.55;;;;;;;;;;3342772;42;20507;-56
2022/06/24 01:02:04;;;;;;;23.67;7.68;;;;;;;;;;3335100;42;20097;-56
2022/06/24 01:04:31;;;;;;;15.02;5.32;;;;;;;;;;3342378;42;20101;-55
2022/06/24 01:06:57;;;;;;;13.93;4.70;;;;;;;;;;3344363;42;20116;-55
2022/06/24 01:09:23;;;;;;;13.25;4.50;;;;;;;;;;3347934;42;20081;-55
2022/06/24 01:11:49;;;;;;;11.52;4.70;;;;;;;;;;3342241;42;20123;-53
2022/06/24 01:14:15;;;;;;;14.07;4.45;;;;;;;;;;3350218;42;20689;-56
2022/06/24 01:16:41;;;;;;;13.37;4.80;;;;;;;;;;3344823;42;20088;-55
2022/06/24 01:19:09;;;;;;;9.90;4.32;;;;;;;;;;3344918;42;20087;-54
2022/06/24 01:21:42;;;;;;;13.02;5.03;;;;;;;;;;3347496;42;20089;-55
2022/06/24 01:24:09;;;;;;;10.63;4.00;;;;;;;;;;3345081;42;20151;-56
2022/06/24 01:26:36;;;;;;;9.23;4.05;;;;;;;;;;3344927;42;20144;-55
2022/06/24 01:29:02;;;;;;;11.40;3.90;;;;;;;;;;3344291;42;20160;-55
2022/06/24 01:31:28;;;;;;;9.57;3.60;;;;;;;;;;3345154;42;20077;-56
2022/06/24 01:33:54;;;;;;;11.13;4.18;;;;;;;;;;3345783;42;20099;-55
2022/06/24 01:36:20;;;;;;;9.93;4.30;;;;;;;;;;3344834;42;20085;-56
2022/06/24 01:38:46;;;;;;;11.03;3.97;;;;;;;;;;3345990;42;20564;-56
2022/06/24 01:41:12;;;;;;;11.30;4.15;;;;;;;;;;3347534;42;20087;-54
2022/06/24 01:43:38;;;;;;;10.40;4.43;;;;;;;;;;3345496;42;20273;-57
2022/06/24 01:46:04;;;;;;;11.68;4.18;;;;;;;;;;3346802;42;20156;-58
2022/06/24 01:48:30;;;;;;;14.73;4.30;;;;;;;;;;3347484;42;20131;-58
2022/06/24 01:50:56;;;;;;;11.33;3.83;;;;;;;;;;3342528;42;20586;-56
2022/06/24 01:53:22;;;;;;;9.98;3.80;;;;;;;;;;3347760;42;20097;-55
2022/06/24 01:55:48;;;;;;;11.75;3.95;;;;;;;;;;3344126;42;20085;-57
2022/06/24 01:58:14;;;;;;;10.37;3.70;;;;;;;;;;3344904;42;20547;-56
2022/06/24 02:00:40;;;;;;;9.93;3.70;;;;;;;;;;3348712;42;20642;-62
2022/06/24 02:03:06;;;;;;;8.98;3.67;;;;;;;;;;3344293;42;20167;-56
2022/06/24 02:05:32;;;;;;;7.90;3.30;;;;;;;;;;3349948;42;20513;-54
2022/06/24 02:07:58;;;;;;;10.20;3.47;;;;;;;;;;3342143;42;20563;-56
2022/06/24 02:13:28;;;;;;;12.60;4.38;;;;;;;;;;3340858;42;20187;-57
2022/06/24 02:15:55;;;;;;;10.45;4.22;;;;;;;;;;3338570;42;20594;-56
2022/06/24 02:18:22;;;;;;;13.82;4.55;;;;;;;;;;3345171;42;20579;-55
2022/06/24 02:20:48;;;;;;;11.03;4.10;;;;;;;;;;3344102;42;20085;-57
2022/06/24 02:23:14;;;;;;;12.25;4.03;;;;;;;;;;3343062;42;20101;-57
2022/06/24 02:25:39;;;;;;;11.57;4.57;;;;;;;;;;3332571;42;20223;-54
2022/06/24 02:28:06;;;;;;;14.15;4.80;;;;;;;;;;3348138;42;20089;-55
2022/06/24 02:30:31;;;;;;;12.07;4.50;;;;;;;;;;3344024;42;20112;-57
2022/06/24 02:32:57;;;;;;;11.75;4.75;;;;;;;;;;3346963;42;20090;-54
2022/06/24 02:35:23;;;;;;;12.93;5.18;;;;;;;;;;3344231;42;20115;-53
2022/06/24 02:37:49;;;;;;;11.88;4.88;;;;;;;;;;3345055;42;20089;-55
2022/06/24 02:43:00;;;;;;;12.77;4.80;;;;;;;;;;3341739;42;20388;-54
2022/06/24 02:45:26;;;;;;;12.90;5.10;;;;;;;;;;3346413;42;20140;-54
2022/06/24 02:47:52;;;;;;;14.48;5.45;;;;;;;;;;3344671;42;20105;-61
2022/06/24 02:50:18;;;;;;;14.07;6.47;;;;;;;;;;3341355;42;20089;-54
2022/06/24 02:52:43;;;;;;;17.50;7.00;;;;;;;;;;3343074;42;20089;-56
2022/06/24 02:55:09;;;;;;;23.27;8.10;;;;;;;;;;3345584;42;20089;-54
2022/06/24 02:57:35;;;;;;;16.40;6.32;;;;;;;;;;3342426;42;20088;-56
2022/06/24 03:00:01;;;;;;;20.73;7.20;;;;;;;;;;3349514;42;20089;-56
2022/06/24 03:02:27;;;;;;;13.83;5.20;;;;;;;;;;3344601;42;20097;-56
2022/06/24 03:04:54;;;;;;;14.88;5.10;;;;;;;;;;3344380;42;20096;-56
2022/06/24 03:07:20;;;;;;;10.68;4.82;;;;;;;;;;3346586;42;20103;-56
2022/06/24 03:09:46;;;;;;;11.35;4.97;;;;;;;;;;3345306;42;20081;-56
2022/06/24 03:12:12;;;;;;;12.23;4.40;;;;;;;;;;3345078;42;20159;-56
2022/06/24 03:14:38;;;;;;;9.95;4.43;;;;;;;;;;3345985;42;20187;-55
2022/06/24 03:17:04;;;;;;;10.50;4.28;;;;;;;;;;3342663;42;20085;-55
2022/06/24 03:19:30;;;;;;;13.63;4.25;;;;;;;;;;3348253;42;20080;-55
2022/06/24 03:21:56;;;;;;;11.97;4.37;;;;;;;;;;3349063;42;20107;-55
2022/06/24 03:24:22;;;;;;;8.93;3.90;;;;;;;;;;3348128;42;20081;-62
2022/06/24 03:26:48;;;;;;;11.77;4.30;;;;;;;;;;3347848;42;20108;-57
2022/06/24 03:29:14;;;;;;;10.93;4.50;;;;;;;;;;3346910;42;20110;-54
2022/06/24 03:31:40;;;;;;;13.23;4.30;;;;;;;;;;3341396;42;20159;-55
2022/06/24 03:34:06;;;;;;;13.60;4.40;;;;;;;;;;3341646;42;20177;-56
2022/06/24 03:36:32;;;;;;;10.45;4.60;;;;;;;;;;3346266;42;20117;-55
2022/06/24 03:38:58;;;;;;;10.47;4.67;;;;;;;;;;3346061;42;20099;-56
2022/06/24 03:41:24;;;;;;;14.63;5.00;;;;;;;;;;3345673;42;20795;-53
2022/06/24 03:43:50;;;;;;;12.88;4.93;;;;;;;;;;3343486;42;20626;-55
2022/06/24 03:46:16;;;;;;;10.50;4.47;;;;;;;;;;3344591;42;20244;-56
2022/06/24 03:48:42;;;;;;;12.20;4.00;;;;;;;;;;3343007;42;20563;-56
2022/06/24 03:51:08;;;;;;;12.10;4.60;;;;;;;;;;3343502;42;20564;-56
2022/06/24 03:53:34;;;;;;;14.65;4.38;;;;;;;;;;3343014;42;20093;-57
2022/06/24 03:56:00;;;;;;;12.10;4.38;;;;;;;;;;3345341;42;20093;-56
2022/06/24 03:58:26;;;;;;;9.00;3.50;;;;;;;;;;3346518;42;20694;-55
2022/06/24 04:00:52;;;;;;;10.77;4.20;;;;;;;;;;3342251;42;20084;-54
2022/06/24 04:03:17;;;;;;;12.27;4.82;;;;;;;;;;3341879;42;20160;-57
2022/06/24 04:05:43;;;;;;;10.85;4.40;;;;;;;;;;3344133;42;20654;-56
2022/06/24 04:08:09;;;;;;;12.23;4.30;;;;;;;;;;3340175;42;20617;-54
2022/06/24 04:10:37;;;;;;;12.43;4.38;;;;;;;;;;3345529;42;20559;-55
2022/06/24 04:13:03;;;;;;;11.13;4.05;;;;;;;;;;3340236;42;20592;-56
2022/06/24 04:15:29;;;;;;;9.55;3.53;;;;;;;;;;3340487;42;20979;-56
2022/06/24 04:17:55;;;;;;;9.97;4.57;;;;;;;;;;3344667;42;20089;-55
2022/06/24 04:20:21;;;;;;;10.67;3.83;;;;;;;;;;3342516;42;21209;-54
2022/06/24 04:22:48;;;;;;;12.00;4.10;;;;;;;;;;3343930;42;20874;-55
2022/06/24 04:25:14;;;;;;;10.05;4.30;;;;;;;;;;3346654;42;20124;-54
2022/06/24 04:27:40;;;;;;;11.52;4.03;;;;;;;;;;3345186;42;20085;-56
2022/06/24 04:30:08;;;;;;;13.02;4.50;;;;;;;;;;3348888;42;20676;-52
2022/06/24 04:32:34;;;;;;;11.00;4.40;;;;;;;;;;3345516;42;20100;-57
2022/06/24 04:35:00;;;;;;;11.85;4.30;;;;;;;;;;3344875;42;20108;-54
2022/06/24 04:37:26;;;;;;;8.65;3.70;;;;;;;;;;3344112;42;20112;-55
2022/06/24 04:39:52;;;;;;;10.10;3.70;;;;;;;;;;3344781;42;20097;-53
2022/06/24 04:42:18;;;;;;;9.53;3.80;;;;;;;;;;3346206;42;20115;-56
2022/06/24 04:44:44;;;;;;;10.80;4.50;;;;;;;;;;3345042;42;20352;-56
2022/06/24 04:47:10;;;;;;;9.15;3.95;;;;;;;;;;3345150;42;20101;-54
2022/06/24 04:49:37;;;;;;;14.60;4.18;;;;;;;;;;3345250;42;20108;-56
2022/06/24 04:52:04;;;;;;;14.43;4.25;;;;;;;;;;3350319;42;20586;-56
2022/06/24 04:54:30;;;;;;;9.27;3.50;;;;;;;;;;3353718;42;20116;-57
2022/06/24 04:56:56;;;;;;;10.02;3.65;;;;;;;;;;3344583;42;20089;-57
2022/06/24 04:59:22;;;;;;;12.15;4.00;;;;;;;;;;3344155;42;20092;-58
2022/06/24 05:01:48;;;;;;;12.02;4.13;;;;;;;;;;3343888;42;20115;-56
2022/06/24 05:04:15;;;;;;;9.93;3.47;;;;;;;;;;3346190;42;20088;-60
2022/06/24 05:06:40;;;;;;;14.18;4.00;;;;;;;;;;3349437;42;20158;-63
2022/06/24 05:09:06;;;;;;;12.10;3.75;;;;;;;;;;3351198;42;20097;-55
2022/06/24 05:11:34;;;;;;;10.48;3.55;;;;;;;;;;3344916;42;20549;-56
2022/06/24 05:14:00;;;;;;;9.20;3.40;;;;;;;;;;3344354;42;20085;-56
2022/06/24 05:16:25;;;;;;;8.40;3.40;;;;;;;;;;3346071;42;20144;-53
2022/06/24 05:18:52;;;;;;;8.18;3.70;;;;;;;;;;3343011;42;20698;-56
2022/06/24 05:21:17;;;;;;;15.68;4.10;;;;;;;;;;3343296;42;20097;-52
2022/06/24 05:23:43;;;;;;;10.07;4.73;;;;;;;;;;3344408;42;20081;-56
2022/06/24 05:26:09;;;;;;;10.48;4.15;;;;;;;;;;3345921;42;20506;-55
2022/06/24 05:28:35;;;;;;;9.20;4.30;;;;;;;;;;3359167;42;20587;-56
2022/06/24 05:31:01;;;;;;;8.27;3.95;;;;;;;;;;3352068;42;20171;-56
2022/06/24 05:33:29;;;;;;;10.63;3.83;;;;;;;;;;3353526;42;20213;-56
2022/06/24 05:35:55;;;;;;;20.40;6.00;;;;;;;;;;3351982;42;20316;-56
2022/06/24 05:38:22;;;;;;;22.00;7.40;;;;;;;;;;3354552;42;20100;-54
2022/06/24 05:40:51;;;;;;;23.48;7.43;;;;;;;;;;3350079;42;20168;-56
2022/06/24 05:43:20;;;;;;;15.32;6.07;;;;;;;;;;3345638;42;20084;-56
2022/06/24 05:45:46;;;;;;;17.83;6.50;;;;;;;;;;3344003;42;20124;-57
2022/06/24 05:48:13;;;;;;;18.07;5.80;;;;;;;;;;3347060;42;20122;-57
2022/06/24 05:50:39;;;;;;;22.20;7.80;;;;;;;;;;3343811;42;20085;-58
2022/06/24 05:55:50;;;;;;;16.23;5.15;;;;;;;;;;3347636;42;20104;-55
2022/06/24 05:58:16;;;;;;;16.17;5.43;;;;;;;;;;3351568;42;20105;-53
2022/06/24 06:00:42;;;;;;;16.10;5.40;;;;;;;;;;3351116;42;20747;-52
2022/06/24 06:03:08;;;;;;;17.02;5.38;;;;;;;;;;3345604;42;20175;-56
2022/06/24 06:05:34;;;;;;;21.25;6.82;;;;;;;;;;3347849;42;20092;-55
2022/06/24 06:08:00;;;;;;;21.50;7.53;;;;;;;;;;3347997;42;20804;-53
2022/06/24 06:10:26;;;;;;;15.47;5.50;;;;;;;;;;3350979;42;20103;-55
2022/06/24 06:12:52;;;;;;;22.00;7.38;;;;;;;;;;3349819;42;20124;-52
2022/06/24 06:15:18;;;;;;;21.50;6.20;;;;;;;;;;3352408;42;20124;-55
2022/06/24 06:17:44;;;;;;;14.53;5.60;;;;;;;;;;3353286;42;20093;-54
2022/06/24 06:20:10;;;;;;;21.63;6.88;;;;;;;;;;3346574;42;20088;-55
2022/06/24 06:22:36;;;;;;;16.80;5.70;;;;;;;;;;3354460;42;20092;-54
2022/06/24 06:25:02;;;;;;;14.15;4.97;;;;;;;;;;3350787;42;20517;-54
2022/06/24 06:27:28;;;;;;;13.77;5.07;;;;;;;;;;3345744;42;20553;-55
2022/06/24 06:29:55;;;;;;;10.23;4.07;;;;;;;;;;3344825;42;20093;-55
2022/06/24 06:32:21;;;;;;;14.05;4.28;;;;;;;;;;3346705;42;20127;-57
2022/06/24 06:34:47;;;;;;;13.43;4.57;;;;;;;;;;3344113;42;20141;-55
2022/06/24 06:37:13;;;;;;;16.80;4.83;;;;;;;;;;3347264;42;20159;-56
2022/06/24 06:39:39;;;;;;;9.48;4.18;;;;;;;;;;3344135;42;20539;-53
2022/06/24 06:42:05;;;;;;;13.38;4.53;;;;;;;;;;3343384;42;20104;-54
2022/06/24 06:44:31;;;;;;;11.32;4.32;;;;;;;;;;3346662;42;20123;-54
2022/06/24 06:46:57;;;;;;;12.70;4.90;;;;;;;;;;3347222;42;20088;-57
2022/06/24 06:49:23;;;;;;;11.55;3.92;;;;;;;;;;3345642;42;20122;-52
2022/06/24 06:51:49;;;;;;;12.07;3.95;;;;;;;;;;3349656;42;20081;-56
2022/06/24 06:54:15;;;;;;;16.30;4.60;;;;;;;;;;3350942;42;20145;-53
2022/06/24 06:56:41;;;;;;;14.10;3.60;;;;;;;;;;3345563;42;20132;-56
2022/06/24 06:59:07;;;;;;;8.93;3.35;;;;;;;;;;3344391;42;20141;-52
2022/06/24 07:01:33;;;;;;;9.45;4.38;;;;;;;;;;3351361;42;20172;-55
2022/06/24 07:03:59;;;;;;;11.30;4.17;;;;;;;;;;3351861;42;20081;-55
2022/06/24 07:06:25;;;;;;;11.95;4.93;;;;;;;;;;3346808;42;20266;-55
2022/06/24 07:08:51;;;;;;;16.67;5.07;;;;;;;;;;3350418;42;20088;-53
2022/06/24 07:11:18;;;;;;;13.05;4.53;;;;;;;;;;3345238;42;20109;-51
2022/06/24 07:13:43;;;;;;;11.90;4.47;;;;;;;;;;3343368;42;20105;-56
2022/06/24 07:16:10;;;;;;;17.67;5.13;;;;;;;;;;3346852;42;20092;-55
2022/06/24 07:18:36;;;;;;;12.23;4.75;;;;;;;;;;3347958;42;20076;-51
2022/06/24 07:21:02;;;;;;;14.23;5.53;;;;;;;;;;3345988;42;20989;-53
2022/06/24 07:23:28;;;;;;;16.80;5.40;;;;;;;;;;3343413;42;20097;-53
2022/06/24 07:25:58;;;;;;;14.83;5.30;;;;;;;;;;3345510;42;20085;-61
2022/06/24 07:28:25;;;;;;;13.85;5.25;;;;;;;;;;3341712;42;20690;-54
2022/06/24 07:30:51;;;;;;;16.00;5.30;;;;;;;;;;3346360;42;20115;-55
2022/06/24 07:33:17;;;;;;;12.93;4.45;;;;;;;;;;3342954;42;20204;-52
2022/06/24 07:35:43;;;;;;;9.70;4.00;;;;;;;;;;3344145;42;20547;-55
2022/06/24 07:38:09;;;;;;;10.07;3.67;;;;;;;;;;3344392;42;20085;-55
2022/06/24 07:40:35;;;;;;;11.38;4.10;;;;;;;;;;3345042;42;20223;-54
2022/06/24 07:43:01;;;;;;;11.65;3.80;;;;;;;;;;3346600;42;20080;-54
2022/06/24 07:45:27;;;;;;;13.40;3.53;;;;;;;;;;3344710;42;20095;-54
2022/06/24 07:47:53;;;;;;;8.50;3.30;;;;;;;;;;3346975;42;20092;-55
2022/06/24 07:50:19;;;;;;;10.15;3.65;;;;;;;;;;3343806;42;20627;-51
2022/06/24 07:52:45;;;;;;;14.73;4.35;;;;;;;;;;3344255;42;20162;-55
2022/06/24 07:57:56;;;;;;;16.17;5.63;;;;;;;;;;3343493;42;20669;-56
2022/06/24 08:00:22;;;;;;;17.53;5.20;;;;;;;;;;3342560;42;20595;-56
2022/06/24 08:02:48;;;;;;;9.98;3.90;;;;;;;;;;3342822;42;20116;-57
2022/06/24 08:05:15;;;;;;;11.73;4.30;;;;;;;;;;3343815;42;20171;-55
2022/06/24 08:07:43;;;;;;;19.95;5.93;;;;;;;;;;3342838;42;20840;-53
2022/06/24 08:10:09;;;;;;;21.57;6.63;;;;;;;;;;3345951;42;20124;-55
2022/06/24 08:12:35;;;;;;;14.80;4.20;;;;;;;;;;3342807;42;20101;-54
2022/06/24 08:15:01;;;;;;;12.63;4.72;;;;;;;;;;3343324;42;20104;-54
2022/06/24 08:17:27;;;;;;;13.70;3.78;;;;;;;;;;3343808;42;20124;-57
2022/06/24 08:19:53;;;;;;;15.50;5.20;;;;;;;;;;3344251;42;20093;-56
2022/06/24 08:22:20;;;;;;;13.83;4.00;;;;;;;;;;3342467;42;20158;-51
2022/06/24 08:24:46;;;;;;;12.30;3.80;;;;;;;;;;3341685;42;20093;-54
2022/06/24 08:27:12;;;;;;;12.55;4.72;;;;;;;;;;3344639;42;20085;-51
2022/06/24 08:29:39;;;;;;;15.15;4.70;;;;;;;;;;3344291;42;20092;-55
2022/06/24 08:32:05;;;;;;;17.00;4.88;;;;;;;;;;3342504;42;20089;-54
2022/06/24 08:34:31;;;;;;;10.23;3.63;;;;;;;;;;3341388;42;20124;-50
2022/06/24 08:36:57;;;;;;;14.02;4.63;;;;;;;;;;3343181;42;20080;-54
2022/06/24 08:39:23;;;;;;;11.38;3.55;;;;;;;;;;3343152;42;20099;-54
2022/06/24 08:41:51;;;;;;;13.38;4.25;;;;;;;;;;3346278;42;20603;-53
2022/06/24 08:44:17;;;;;;;11.27;3.80;;;;;;;;;;3342864;42;20580;-52
2022/06/24 08:46:43;;;;;;;7.17;2.90;;;;;;;;;;3344677;42;20563;-49
2022/06/24 08:49:09;;;;;;;10.77;2.95;;;;;;;;;;3346136;42;20507;-52
2022/06/24 08:51:35;;;;;;;12.75;3.17;;;;;;;;;;3340841;42;20639;-53
2022/06/24 08:54:01;;;;;;;14.52;3.30;;;;;;;;;;3343635;42;20164;-55
2022/06/24 08:56:28;;;;;;;9.57;2.90;;;;;;;;;;3338880;42;20097;-53
2022/06/24 08:58:54;;;;;;;9.23;3.00;;;;;;;;;;3345956;42;20081;-53
2022/06/24 09:01:21;;;;;;;10.13;3.40;;;;;;;;;;3342984;42;20638;-53
2022/06/24 09:03:48;;;;;;;10.77;3.17;;;;;;;;;;3342676;42;20105;-54
2022/06/24 09:06:15;;;;;;;10.48;2.70;;;;;;;;;;3344816;42;20101;-52
2022/06/24 09:08:51;;;;;;;7.97;2.20;;;;;;;;;;3340177;42;20189;-50
2022/06/24 09:11:17;;;;;;;8.82;2.63;;;;;;;;;;3342668;42;20121;-54
2022/06/24 09:13:44;;;;;;;11.75;3.28;;;;;;;;;;3346967;42;20149;-53
2022/06/24 09:16:11;;;;;;;14.57;2.63;;;;;;;;;;3343119;42;20092;-53
2022/06/24 09:18:38;;;;;;;13.73;2.50;;;;;;;;;;3344915;42;20085;-52
2022/06/24 09:21:04;;;;;;;12.13;3.20;;;;;;;;;;3345013;42;20564;-52
2022/06/24 09:23:30;;;;;;;11.35;2.30;;;;;;;;;;3336194;42;20097;-52
2022/06/24 09:25:59;;;;;;;8.40;2.38;;;;;;;;;;3345428;42;20088;-55
2022/06/24 09:28:29;;;;;;;10.95;2.45;;;;;;;;;;3346539;42;20529;-56
2022/06/24 09:31:18;;;;;;;9.40;2.90;;;;;;;;;;3344030;42;20148;-58
2022/06/24 09:33:44;;;;;;;13.30;3.27;;;;;;;;;;3344456;42;20115;-57
2022/06/24 09:36:11;;;;;;;12.57;3.28;;;;;;;;;;3344072;42;20552;-57
2022/06/24 09:38:56;;;;;;;9.90;2.65;;;;;;;;;;3345793;42;20153;-56
2022/06/24 09:41:23;;;;;;;8.75;2.55;;;;;;;;;;3347964;42;20163;-55
2022/06/24 09:43:51;;;;;;;10.13;2.75;;;;;;;;;;3346931;42;20103;-56
2022/06/24 09:46:22;;;;;;;14.47;4.07;;;;;;;;;;3344773;42;20168;-55
2022/06/24 09:48:50;;;;;;;16.52;3.38;;;;;;;;;;3341465;42;20615;-56
2022/06/24 09:51:17;;;;;;;11.60;3.17;;;;;;;;;;3341406;42;20148;-53
2022/06/24 09:53:43;;;;;;;10.77;2.70;;;;;;;;;;3335066;42;20100;-59
2022/06/24 09:56:10;;;;;;;10.15;2.55;;;;;;;;;;3344978;42;20245;-57
2022/06/24 09:58:36;;;;;;;11.47;2.70;;;;;;;;;;3343652;42;20136;-60
2022/06/24 10:01:02;;;;;;;12.25;3.17;;;;;;;;;;3346223;42;20144;-57
2022/06/24 10:03:28;;;;;;;8.55;3.08;;;;;;;;;;3344480;42;20175;-58
2022/06/24 10:05:57;;;;;;;9.13;3.25;;;;;;;;;;3344744;42;20101;-54
2022/06/24 10:08:23;;;;;;;8.30;2.55;;;;;;;;;;3347693;42;20084;-56
2022/06/24 10:10:55;;;;;;;9.80;3.07;;;;;;;;;;3336648;42;20624;-56
2022/06/24 10:13:29;;;;;;;18.75;4.28;;;;;;;;;;3341606;42;20135;-55
2022/06/24 10:15:59;;;;;;;10.65;3.28;;;;;;;;;;3339793;42;20156;-54
2022/06/24 10:18:35;;;;;;;13.00;3.33;;;;;;;;;;3341682;42;20107;-57
2022/06/24 10:21:06;;;;;;;9.07;2.92;;;;;;;;;;3347843;42;20089;-58
2022/06/24 10:23:36;;;;;;;10.43;2.83;;;;;;;;;;3345927;42;20093;-58
2022/06/24 10:26:10;;;;;;;13.32;3.05;;;;;;;;;;3344566;42;20128;-57
2022/06/24 10:29:04;;;;;;;12.98;3.20;;;;;;;;;;3345890;42;20195;-56
2022/06/24 10:31:52;;;;;;;7.53;2.38;;;;;;;;;;3347054;42;20731;-59
2022/06/24 10:34:29;;;;;;;8.52;2.67;;;;;;;;;;3346153;42;20709;-56
2022/06/24 10:37:11;;;;;;;9.37;2.57;;;;;;;;;;3342860;42;20111;-57
2022/06/24 10:39:46;;;;;;;19.85;2.55;;;;;;;;;;3344788;42;20085;-57
2022/06/24 10:42:14;;;;;;;9.27;2.30;;;;;;;;;;3346846;42;20173;-56
2022/06/24 10:44:54;;;;;;;5.88;1.80;;;;;;;;;;3349351;42;20123;-56
2022/06/24 10:47:27;;;;;;;10.13;2.42;;;;;;;;;;3348177;42;21053;-57
2022/06/24 10:49:59;;;;;;;18.47;4.53;;;;;;;;;;3346220;42;20100;-56
2022/06/24 10:52:59;;;;;;;9.55;3.13;;;;;;;;;;3346179;42;20770;-57
2022/06/24 10:55:29;;;;;;;10.88;2.88;;;;;;;;;;3346754;42;20111;-57
2022/06/24 10:58:03;;;;;;;13.93;3.20;;;;;;;;;;3340947;42;20112;-57
2022/06/24 11:00:51;;;;;;;14.70;2.60;;;;;;;;;;3344605;42;20100;-57
2022/06/24 11:03:28;;;;;;;7.97;2.03;;;;;;;;;;3341857;42;20093;-58
2022/06/24 11:05:54;;;;;;;9.73;2.20;;;;;;;;;;3336677;42;20107;-56
2022/06/24 11:08:22;;;;;;;12.27;2.40;;;;;;;;;;3343689;42;20146;-57
2022/06/24 11:10:48;;;;;;;8.50;2.70;;;;;;;;;;3349142;42;20158;-56
2022/06/24 11:13:14;;;;;;;15.35;2.95;;;;;;;;;;3348858;42;20215;-55
2022/06/24 11:15:56;;;;;;;11.53;2.83;;;;;;;;;;3342279;42;20089;-55
2022/06/24 11:18:26;;;;;;;8.80;2.00;;;;;;;;;;3345572;42;20533;-56
2022/06/24 11:20:57;;;;;;;8.25;1.80;;;;;;;;;;3344284;42;20199;-56
2022/06/24 11:23:24;;;;;;;4.93;1.60;;;;;;;;;;3342060;42;20128;-58
2022/06/24 11:25:52;;;;;;;5.32;1.55;;;;;;;;;;3345231;42;20100;-58
2022/06/24 11:28:18;;;;;;;5.23;1.60;;;;;;;;;;3345408;42;20156;-56
2022/06/24 11:30:44;;;;;;;7.47;1.80;;;;;;;;;;3344339;42;20081;-55
2022/06/24 11:33:10;;;;;;;6.88;2.03;;;;;;;;;;3340626;42;20168;-59
2022/06/24 11:35:37;;;;;;;7.25;1.85;;;;;;;;;;3344545;42;20085;-57
2022/06/24 11:38:07;;;;;;;6.65;1.67;;;;;;;;;;3345537;42;20080;-56
2022/06/24 11:40:33;;;;;;;8.37;1.90;;;;;;;;;;3338867;42;20511;-55
2022/06/24 11:43:05;;;;;;;8.55;2.25;;;;;;;;;;3338513;42;20587;-58
2022/06/24 11:45:31;;;;;;;8.45;2.28;;;;;;;;;;3346687;42;20124;-56
2022/06/24 11:47:57;;;;;;;11.20;3.20;;;;;;;;;;3343168;42;20528;-57
2022/06/24 11:50:23;;;;;;;9.53;3.10;;;;;;;;;;3344338;42;20562;-58
2022/06/24 11:52:49;;;;;;;15.93;3.20;;;;;;;;;;3346264;42;20311;-57
2022/06/24 11:55:23;;;;;;;10.32;3.00;;;;;;;;;;3344883;42;20077;-57
2022/06/24 11:57:56;;;;;;;12.13;2.70;;;;;;;;;;3342432;42;20109;-56
2022/06/24 12:00:23;;;;;;;8.35;2.38;;;;;;;;;;3343448;42;20171;-57
2022/06/24 12:02:50;;;;;;;7.17;1.90;;;;;;;;;;3342071;42;20142;-58
2022/06/24 12:05:16;;;;;;;9.10;1.80;;;;;;;;;;3340756;42;20101;-56
2022/06/24 12:07:42;;;;;;;8.27;1.85;;;;;;;;;;3343673;42;20095;-56
2022/06/24 12:10:08;;;;;;;10.70;1.88;;;;;;;;;;3342896;42;20503;-56
2022/06/24 12:12:34;;;;;;;6.65;1.75;;;;;;;;;;3346928;42;20533;-56
2022/06/24 12:15:00;;;;;;;5.80;1.60;;;;;;;;;;3336166;42;20559;-53
2022/06/24 12:17:26;;;;;;;7.93;1.60;;;;;;;;;;3344341;42;20104;-56
2022/06/24 12:20:01;;;;;;;5.25;1.50;;;;;;;;;;3340033;42;20581;-57
2022/06/24 12:22:27;;;;;;;8.80;2.20;;;;;;;;;;3343384;42;20506;-56
2022/06/24 12:25:09;;;;;;;7.67;1.70;;;;;;;;;;3345527;42;20086;-56
2022/06/24 12:27:40;;;;;;;9.70;2.00;;;;;;;;;;3343736;42;20196;-57
2022/06/24 12:30:07;;;;;;;10.10;2.70;;;;;;;;;;3342180;42;20089;-57
2022/06/24 12:32:50;;;;;;;11.05;2.78;;;;;;;;;;3338256;42;20097;-56
2022/06/24 12:35:29;;;;;;;14.77;3.20;;;;;;;;;;3340191;42;20088;-58
2022/06/24 12:37:55;;;;;;;9.23;2.10;;;;;;;;;;3342550;42;20588;-56
2022/06/24 12:40:24;;;;;;;10.48;2.20;;;;;;;;;;3345686;42;20136;-57
2022/06/24 12:43:11;;;;;;;6.47;1.65;;;;;;;;;;3341780;42;20088;-57
2022/06/24 12:45:38;;;;;;;6.55;1.70;;;;;;;;;;3347811;42;20192;-58
2022/06/24 12:51:13;;;;;;;7.03;2.00;;;;;;;;;;3341318;42;20473;-55
2022/06/24 12:53:45;;;;;;;8.05;2.10;;;;;;;;;;3342719;42;20515;-56
2022/06/24 12:56:10;;;;;;;10.30;2.20;;;;;;;;;;3334367;42;20584;-57
2022/06/24 12:58:36;;;;;;;11.88;2.45;;;;;;;;;;3343397;42;20176;-58
2022/06/24 13:01:02;;;;;;;15.70;3.17;;;;;;;;;;3341571;42;20136;-59
2022/06/24 13:03:28;;;;;;;9.82;1.90;;;;;;;;;;3332955;42;20093;-59
2022/06/24 13:05:54;;;;;;;10.20;2.10;;;;;;;;;;3345910;42;20518;-56
2022/06/24 13:08:22;;;;;;;9.82;2.05;;;;;;;;;;3342090;42;20239;-56
2022/06/24 13:10:48;;;;;;;15.10;2.90;;;;;;;;;;3346137;42;20089;-55
2022/06/24 13:13:14;;;;;;;10.40;2.00;;;;;;;;;;3344490;42;20092;-56
2022/06/24 13:15:40;;;;;;;11.20;2.38;;;;;;;;;;3342521;42;20080;-59
2022/06/24 13:18:06;;;;;;;19.48;3.65;;;;;;;;;;3344687;42;20085;-56
2022/06/24 13:20:32;;;;;;;10.80;2.53;;;;;;;;;;3346358;42;20081;-55
2022/06/24 13:22:58;;;;;;;11.18;2.10;;;;;;;;;;3348511;42;20595;-56
2022/06/24 13:25:24;;;;;;;12.95;2.30;;;;;;;;;;3342288;42;20614;-55
2022/06/24 13:27:50;;;;;;;11.10;2.00;;;;;;;;;;3345763;42;20093;-58
2022/06/24 13:30:16;;;;;;;14.02;2.80;;;;;;;;;;3340074;42;20185;-57
2022/06/24 13:32:42;;;;;;;8.83;1.80;;;;;;;;;;3344464;42;20108;-58
2022/06/24 13:35:09;;;;;;;15.40;3.00;;;;;;;;;;3340880;42;20532;-61
2022/06/24 13:37:35;;;;;;;14.80;2.92;;;;;;;;;;3348183;42;20085;-57
2022/06/24 13:40:01;;;;;;;10.57;2.63;;;;;;;;;;3345090;42;20111;-57
2022/06/24 13:42:29;;;;;;;12.13;1.90;;;;;;;;;;3345611;42;20096;-56
2022/06/24 13:44:55;;;;;;;8.13;1.73;;;;;;;;;;3341681;42;20129;-54
2022/06/24 13:47:21;;;;;;;11.30;1.80;;;;;;;;;;3349322;42;20574;-57
2022/06/24 13:49:47;;;;;;;13.93;2.10;;;;;;;;;;3343189;42;20089;-57
2022/06/24 13:52:14;;;;;;;9.30;2.03;;;;;;;;;;3335124;42;20619;-57
2022/06/24 13:54:40;;;;;;;13.18;2.83;;;;;;;;;;3343608;42;20614;-58
2022/06/24 13:57:06;;;;;;;10.60;2.35;;;;;;;;;;3342991;42;20733;-57
2022/06/24 13:59:33;;;;;;;16.55;3.20;;;;;;;;;;3344711;42;20095;-57
2022/06/24 14:01:59;;;;;;;13.67;2.30;;;;;;;;;;3340796;42;20644;-54
2022/06/24 14:04:25;;;;;;;9.63;2.10;;;;;;;;;;3346020;42;20081;-57
2022/06/24 14:06:51;;;;;;;10.18;1.70;;;;;;;;;;3344210;42;20534;-56
2022/06/24 14:09:17;;;;;;;11.30;2.08;;;;;;;;;;3351281;42;20088;-57
2022/06/24 14:11:43;;;;;;;16.77;2.43;;;;;;;;;;3345466;42;20093;-56
2022/06/24 14:14:09;;;;;;;13.65;2.88;;;;;;;;;;3347377;42;20139;-58
2022/06/24 14:16:35;;;;;;;14.73;2.72;;;;;;;;;;3347388;42;20092;-58
2022/06/24 14:19:01;;;;;;;15.55;2.45;;;;;;;;;;3353954;42;20089;-56
2022/06/24 14:21:27;;;;;;;12.27;2.33;;;;;;;;;;3344376;42;20563;-58
2022/06/24 14:26:37;;;;;;;10.80;2.72;;;;;;;;;;3345437;42;20619;-55
2022/06/24 14:29:03;;;;;;;16.50;2.97;;;;;;;;;;3346262;42;20096;-57
2022/06/24 14:31:29;;;;;;;15.53;3.50;;;;;;;;;;3346316;42;20108;-58
2022/06/24 14:33:55;;;;;;;22.80;3.50;;;;;;;;;;3344989;42;20081;-58
2022/06/24 14:36:21;;;;;;;18.23;3.42;;;;;;;;;;3339607;42;20152;-59
2022/06/24 14:41:31;;;;;;;16.77;2.93;;;;;;;;;;3348636;42;20501;-56
2022/06/24 14:43:57;;;;;;;12.55;2.38;;;;;;;;;;3348151;42;20635;-55
2022/06/24 14:46:23;;;;;;;14.45;3.13;;;;;;;;;;3346777;42;20540;-56
2022/06/24 14:48:49;;;;;;;12.63;2.83;;;;;;;;;;3344445;42;20104;-57
2022/06/24 14:51:15;;;;;;;11.83;2.20;;;;;;;;;;3347608;42;20167;-57
2022/06/24 14:53:41;;;;;;;11.85;2.80;;;;;;;;;;3344563;42;20581;-56
2022/06/24 14:56:07;;;;;;;15.18;4.05;;;;;;;;;;3346997;42;20105;-56